sensor_id;sensor_type;location;lat;lon;timestamp;pressure;altitude;pressure_sealevel;temperature;humidity
84607;BME280;74838;47.984;7.842;2024-02-16T00:02:04;98369.19;;;11.25;77.66
84607;BME280;74838;47.984;7.842;2024-02-16T00:04:30;98368.66;;;11.23;77.98
84607;BME280;74838;47.984;7.842;2024-02-16T00:06:57;98376.38;;;11.25;78.10
84607;BME280;74838;47.984;7.842;2024-02-16T00:09:26;98376.63;;;11.23;76.84
84607;BME280;74838;47.984;7.842;2024-02-16T00:11:53;98367.84;;;11.23;76.74
84607;BME280;74838;47.984;7.842;2024-02-16T00:14:21;98329.09;;;10.96;76.40
84607;BME280;74838;47.984;7.842;2024-02-16T00:16:50;98373.97;;;11.23;76.08
84607;BME280;74838;47.984;7.842;2024-02-16T00:19:17;98354.81;;;11.21;75.30
84607;BME280;74838;47.984;7.842;2024-02-16T00:21:44;98360.16;;;11.26;74.75
84607;BME280;74838;47.984;7.842;2024-02-16T00:24:10;98365.22;;;11.28;74.17
84607;BME280;74838;47.984;7.842;2024-02-16T00:26:40;98367.63;;;11.29;73.94
84607;BME280;74838;47.984;7.842;2024-02-16T00:29:10;98361.78;;;11.32;73.44
84607;BME280;74838;47.984;7.842;2024-02-16T00:31:38;98361.25;;;11.30;73.36
84607;BME280;74838;47.984;7.842;2024-02-16T00:34:05;98367.88;;;11.28;72.74
84607;BME280;74838;47.984;7.842;2024-02-16T00:36:32;98358.31;;;11.27;73.07
84607;BME280;74838;47.984;7.842;2024-02-16T00:39:02;98361.75;;;11.27;72.87
84607;BME280;74838;47.984;7.842;2024-02-16T00:41:29;98365.50;;;11.31;72.40
84607;BME280;74838;47.984;7.842;2024-02-16T00:43:55;98365.00;;;11.34;72.49
84607;BME280;74838;47.984;7.842;2024-02-16T00:46:22;98352.44;;;11.25;72.65
84607;BME280;74838;47.984;7.842;2024-02-16T00:48:51;98369.28;;;11.40;72.15
84607;BME280;74838;47.984;7.842;2024-02-16T00:51:19;98369.84;;;11.42;71.52
84607;BME280;74838;47.984;7.842;2024-02-16T00:53:46;98359.50;;;11.46;71.24
84607;BME280;74838;47.984;7.842;2024-02-16T00:56:15;98376.31;;;11.56;70.61
84607;BME280;74838;47.984;7.842;2024-02-16T00:58:42;98369.16;;;11.61;70.43
84607;BME280;74838;47.984;7.842;2024-02-16T01:01:08;98375.28;;;11.62;70.23
84607;BME280;74838;47.984;7.842;2024-02-16T01:03:36;98380.63;;;11.62;70.20
84607;BME280;74838;47.984;7.842;2024-02-16T01:06:07;98375.28;;;11.62;70.45
84607;BME280;74838;47.984;7.842;2024-02-16T01:08:35;98378.78;;;11.67;69.45
84607;BME280;74838;47.984;7.842;2024-02-16T01:11:02;98369.44;;;11.65;69.52
84607;BME280;74838;47.984;7.842;2024-02-16T01:13:29;98371.91;;;11.81;68.23
84607;BME280;74838;47.984;7.842;2024-02-16T01:15:58;98368.72;;;11.84;69.00
84607;BME280;74838;47.984;7.842;2024-02-16T01:18:28;98375.91;;;11.84;69.28
84607;BME280;74838;47.984;7.842;2024-02-16T01:20:55;98371.66;;;11.83;68.48
84607;BME280;74838;47.984;7.842;2024-02-16T01:23:24;98348.41;;;11.68;69.23
84607;BME280;74838;47.984;7.842;2024-02-16T01:25:51;98371.66;;;11.83;69.76
84607;BME280;74838;47.984;7.842;2024-02-16T01:28:20;98373.78;;;11.81;69.10
84607;BME280;74838;47.984;7.842;2024-02-16T01:30:49;98363.63;;;11.73;69.80
84607;BME280;74838;47.984;7.842;2024-02-16T01:33:16;98370.59;;;11.79;69.61
84607;BME280;74838;47.984;7.842;2024-02-16T01:35:43;98372.16;;;11.80;69.80
84607;BME280;74838;47.984;7.842;2024-02-16T01:38:11;98365.25;;;11.79;69.45
84607;BME280;74838;47.984;7.842;2024-02-16T01:40:39;98377.50;;;11.80;68.67
84607;BME280;74838;47.984;7.842;2024-02-16T01:43:08;98365.53;;;11.82;69.06
84607;BME280;74838;47.984;7.842;2024-02-16T01:45:35;98369.81;;;11.88;68.30
84607;BME280;74838;47.984;7.842;2024-02-16T01:48:05;98370.06;;;11.87;68.78
84607;BME280;74838;47.984;7.842;2024-02-16T01:50:34;98371.94;;;11.86;68.79
84607;BME280;74838;47.984;7.842;2024-02-16T01:53:03;98379.66;;;11.88;69.45
84607;BME280;74838;47.984;7.842;2024-02-16T01:55:30;98379.66;;;11.88;69.16
84607;BME280;74838;47.984;7.842;2024-02-16T01:57:59;98371.69;;;11.93;68.58
84607;BME280;74838;47.984;7.842;2024-02-16T02:00:26;98371.69;;;11.93;68.26
84607;BME280;74838;47.984;7.842;2024-02-16T02:02:53;98370.06;;;11.92;69.02
84607;BME280;74838;47.984;7.842;2024-02-16T02:05:20;98355.16;;;11.86;68.77
84607;BME280;74838;47.984;7.842;2024-02-16T02:07:48;98362.06;;;11.87;69.84
84607;BME280;74838;47.984;7.842;2024-02-16T02:10:15;98354.63;;;11.89;68.79
84607;BME280;74838;47.984;7.842;2024-02-16T02:12:42;98347.19;;;11.91;67.40
84607;BME280;74838;47.984;7.842;2024-02-16T02:15:11;98348.25;;;11.95;67.65
84607;BME280;74838;47.984;7.842;2024-02-16T02:17:38;98340.53;;;11.93;68.51
84607;BME280;74838;47.984;7.842;2024-02-16T02:20:07;98337.59;;;11.90;69.26
84607;BME280;74838;47.984;7.842;2024-02-16T02:22:37;98334.41;;;11.88;67.56
84607;BME280;74838;47.984;7.842;2024-02-16T02:25:04;98343.44;;;11.92;68.10
84607;BME280;74838;47.984;7.842;2024-02-16T02:27:31;98337.59;;;11.95;66.01
84607;BME280;74838;47.984;7.842;2024-02-16T02:29:58;98337.38;;;12.01;65.61
84607;BME280;74838;47.984;7.842;2024-02-16T02:32:25;98344.53;;;12.05;65.72
84607;BME280;74838;47.984;7.842;2024-02-16T02:34:51;98320.56;;;11.91;66.31
84607;BME280;74838;47.984;7.842;2024-02-16T02:37:20;98339.22;;;12.05;66.44
84607;BME280;74838;47.984;7.842;2024-02-16T02:39:48;98340.03;;;12.06;65.87
84607;BME280;74838;47.984;7.842;2024-02-16T02:42:15;98337.66;;;12.14;66.02
84607;BME280;74838;47.984;7.842;2024-02-16T02:44:41;98348.84;;;12.11;67.38
84607;BME280;74838;47.984;7.842;2024-02-16T02:47:14;98347.78;;;12.07;68.47
84607;BME280;74838;47.984;7.842;2024-02-16T02:49:43;98339.75;;;11.93;69.43
84607;BME280;74838;47.984;7.842;2024-02-16T02:52:10;98351.19;;;11.98;68.97
84607;BME280;74838;47.984;7.842;2024-02-16T02:54:37;98358.34;;;11.88;70.41
84607;BME280;74838;47.984;7.842;2024-02-16T02:57:07;98331.94;;;11.71;70.31
84607;BME280;74838;47.984;7.842;2024-02-16T02:59:33;98352.47;;;11.81;70.57
84607;BME280;74838;47.984;7.842;2024-02-16T03:02:00;98356.13;;;11.65;71.58
84607;BME280;74838;47.984;7.842;2024-02-16T03:04:27;98359.34;;;11.72;71.89
84607;BME280;74838;47.984;7.842;2024-02-16T03:06:53;98345.72;;;11.63;71.01
84607;BME280;74838;47.984;7.842;2024-02-16T03:09:20;98352.44;;;11.71;71.60
84607;BME280;74838;47.984;7.842;2024-02-16T03:11:48;98350.84;;;11.75;71.37
84607;BME280;74838;47.984;7.842;2024-02-16T03:14:16;98346.88;;;11.77;71.78
84607;BME280;74838;47.984;7.842;2024-02-16T03:16:42;98345.00;;;11.78;71.89
84607;BME280;74838;47.984;7.842;2024-02-16T03:19:09;98338.09;;;11.82;72.35
84607;BME280;74838;47.984;7.842;2024-02-16T03:21:36;98334.63;;;11.76;73.16
84607;BME280;74838;47.984;7.842;2024-02-16T03:24:03;98317.28;;;11.64;73.13
84607;BME280;74838;47.984;7.842;2024-02-16T03:26:29;98335.41;;;11.77;73.39
84607;BME280;74838;47.984;7.842;2024-02-16T03:28:57;98332.22;;;11.75;73.10
84607;BME280;74838;47.984;7.842;2024-02-16T03:31:25;98337.00;;;11.73;72.92
84607;BME280;74838;47.984;7.842;2024-02-16T03:33:52;98334.34;;;11.78;70.36
84607;BME280;74838;47.984;7.842;2024-02-16T03:36:19;98334.09;;;11.79;69.99
84607;BME280;74838;47.984;7.842;2024-02-16T03:38:48;98340.22;;;11.80;70.39
84607;BME280;74838;47.984;7.842;2024-02-16T03:41:18;98325.81;;;11.71;69.90
84607;BME280;74838;47.984;7.842;2024-02-16T03:43:45;98342.09;;;11.79;69.92
84607;BME280;74838;47.984;7.842;2024-02-16T03:46:12;98343.94;;;11.84;68.81
84607;BME280;74838;47.984;7.842;2024-02-16T03:48:40;98343.69;;;11.85;69.46
84607;BME280;74838;47.984;7.842;2024-02-16T03:51:07;98342.91;;;11.85;68.49
84607;BME280;74838;47.984;7.842;2024-02-16T03:53:34;98354.09;;;11.87;68.75
84607;BME280;74838;47.984;7.842;2024-02-16T03:56:03;98350.88;;;11.80;69.54
84607;BME280;74838;47.984;7.842;2024-02-16T03:58:31;98366.03;;;11.79;69.45
84607;BME280;74838;47.984;7.842;2024-02-16T04:00:58;98349.78;;;11.76;69.95
84607;BME280;74838;47.984;7.842;2024-02-16T04:03:27;98361.22;;;11.76;70.08
84607;BME280;74838;47.984;7.842;2024-02-16T04:05:55;98361.75;;;11.73;69.83
84607;BME280;74838;47.984;7.842;2024-02-16T04:08:22;98367.91;;;11.74;68.23
84607;BME280;74838;47.984;7.842;2024-02-16T04:10:48;98367.59;;;11.75;71.43
84607;BME280;74838;47.984;7.842;2024-02-16T04:13:15;98360.41;;;11.71;70.33
84607;BME280;74838;47.984;7.842;2024-02-16T04:15:44;98376.66;;;11.74;72.83
84607;BME280;74838;47.984;7.842;2024-02-16T04:18:11;98366.31;;;11.78;73.27
84607;BME280;74838;47.984;7.842;2024-02-16T04:20:38;98371.63;;;11.78;72.01
84607;BME280;74838;47.984;7.842;2024-02-16T04:23:07;98364.94;;;11.75;72.17
84607;BME280;74838;47.984;7.842;2024-02-16T04:25:34;98369.47;;;11.75;73.39
84607;BME280;74838;47.984;7.842;2024-02-16T04:28:02;98367.91;;;11.74;71.22
84607;BME280;74838;47.984;7.842;2024-02-16T04:30:29;98363.09;;;11.76;72.07
84607;BME280;74838;47.984;7.842;2024-02-16T04:32:56;98370.81;;;11.72;71.86
84607;BME280;74838;47.984;7.842;2024-02-16T04:35:22;98367.03;;;11.63;71.20
84607;BME280;74838;47.984;7.842;2024-02-16T04:37:49;98376.66;;;11.69;73.22
84607;BME280;74838;47.984;7.842;2024-02-16T04:40:17;98373.44;;;11.62;71.45
84607;BME280;74838;47.984;7.842;2024-02-16T04:42:47;98376.34;;;11.61;72.82
84607;BME280;74838;47.984;7.842;2024-02-16T04:45:14;98379.00;;;11.61;73.17
84607;BME280;74838;47.984;7.842;2024-02-16T04:47:40;98379.25;;;11.59;74.87
84607;BME280;74838;47.984;7.842;2024-02-16T04:50:08;98377.06;;;11.52;73.36
84607;BME280;74838;47.984;7.842;2024-02-16T04:52:36;98381.59;;;11.46;76.58
84607;BME280;74838;47.984;7.842;2024-02-16T04:55:04;98386.59;;;11.43;76.60
84607;BME280;74838;47.984;7.842;2024-02-16T04:57:35;98375.38;;;11.36;77.43
84607;BME280;74838;47.984;7.842;2024-02-16T05:00:03;98381.50;;;11.36;74.91
84607;BME280;74838;47.984;7.842;2024-02-16T05:02:30;98390.53;;;11.35;74.76
84607;BME280;74838;47.984;7.842;2024-02-16T05:04:56;98384.13;;;11.31;73.37
84607;BME280;74838;47.984;7.842;2024-02-16T05:07:23;98389.75;;;11.40;75.94
84607;BME280;74838;47.984;7.842;2024-02-16T05:09:52;98399.31;;;11.36;78.62
84607;BME280;74838;47.984;7.842;2024-02-16T05:12:23;98391.09;;;11.37;74.14
84607;BME280;74838;47.984;7.842;2024-02-16T05:14:53;98392.13;;;11.36;75.64
84607;BME280;74838;47.984;7.842;2024-02-16T05:17:22;98260.72;;;10.45;77.19
84607;BME280;74838;47.984;7.842;2024-02-16T05:19:51;98377.66;;;11.17;72.59
84607;BME280;74838;47.984;7.842;2024-02-16T05:22:19;98403.31;;;11.33;74.54
84607;BME280;74838;47.984;7.842;2024-02-16T05:24:47;98402.47;;;11.33;75.85
84607;BME280;74838;47.984;7.842;2024-02-16T05:27:16;98388.38;;;11.32;73.63
84607;BME280;74838;47.984;7.842;2024-02-16T05:29:43;98395.88;;;11.35;72.87
84607;BME280;74838;47.984;7.842;2024-02-16T05:32:13;98398.00;;;11.33;73.29
84607;BME280;74838;47.984;7.842;2024-02-16T05:34:40;98384.13;;;11.31;74.69
84607;BME280;74838;47.984;7.842;2024-02-16T05:37:07;98405.41;;;11.31;74.60
84607;BME280;74838;47.984;7.842;2024-02-16T05:39:36;98386.97;;;11.15;72.07
84607;BME280;74838;47.984;7.842;2024-02-16T05:42:19;98399.78;;;11.28;73.31
84607;BME280;74838;47.984;7.842;2024-02-16T05:44:49;98400.06;;;11.31;72.89
84607;BME280;74838;47.984;7.842;2024-02-16T05:47:17;98403.31;;;11.33;73.76
84607;BME280;74838;47.984;7.842;2024-02-16T05:49:46;98405.69;;;11.30;73.92
84607;BME280;74838;47.984;7.842;2024-02-16T05:52:13;98406.44;;;11.25;73.70
84607;BME280;74838;47.984;7.842;2024-02-16T05:54:46;98405.84;;;11.18;73.90
84607;BME280;74838;47.984;7.842;2024-02-16T05:57:13;98415.47;;;11.24;74.40
84607;BME280;74838;47.984;7.842;2024-02-16T05:59:43;98419.75;;;11.25;74.08
84607;BME280;74838;47.984;7.842;2024-02-16T06:02:10;98408.78;;;11.17;74.14
84607;BME280;74838;47.984;7.842;2024-02-16T06:04:39;98420.28;;;11.27;75.40
84607;BME280;74838;47.984;7.842;2024-02-16T06:07:08;98421.06;;;11.28;74.80
84607;BME280;74838;47.984;7.842;2024-02-16T06:09:38;98429.00;;;11.23;74.92
84607;BME280;74838;47.984;7.842;2024-02-16T07:57:33;98504.44;;;12.20;71.79
84607;BME280;74838;47.984;7.842;2024-02-16T08:00:00;98488.16;;;12.17;72.35
84607;BME280;74838;47.984;7.842;2024-02-16T08:02:30;98513.59;;;12.44;71.01
84607;BME280;74838;47.984;7.842;2024-02-16T08:04:57;98505.13;;;12.57;70.37
84607;BME280;74838;47.984;7.842;2024-02-16T08:07:24;98504.88;;;12.73;68.96
84607;BME280;74838;47.984;7.842;2024-02-16T08:09:51;98504.97;;;12.93;67.73
84607;BME280;74838;47.984;7.842;2024-02-16T08:12:17;98518.06;;;13.09;67.36
84607;BME280;74838;47.984;7.842;2024-02-16T08:14:45;98515.97;;;13.26;66.51
84607;BME280;74838;47.984;7.842;2024-02-16T08:17:12;98512.47;;;13.45;65.71
84607;BME280;74838;47.984;7.842;2024-02-16T08:19:39;98513.25;;;13.66;65.30
84607;BME280;74838;47.984;7.842;2024-02-16T08:22:07;98516.47;;;13.77;65.91
84607;BME280;74838;47.984;7.842;2024-02-16T08:24:34;98511.09;;;13.92;63.13
84607;BME280;74838;47.984;7.842;2024-02-16T08:27:03;98522.03;;;14.10;63.07
84607;BME280;74838;47.984;7.842;2024-02-16T08:29:30;98527.09;;;14.27;62.57
84607;BME280;74838;47.984;7.842;2024-02-16T08:32:00;98526.50;;;14.40;61.83
84607;BME280;74838;47.984;7.842;2024-02-16T08:34:29;98526.41;;;14.59;60.21
84607;BME280;74838;47.984;7.842;2024-02-16T08:36:55;98530.91;;;14.69;60.30
84607;BME280;74838;47.984;7.842;2024-02-16T08:39:22;98533.25;;;14.80;61.87
84607;BME280;74838;47.984;7.842;2024-02-16T08:41:50;98529.22;;;14.88;60.96
84607;BME280;74838;47.984;7.842;2024-02-16T08:44:17;98527.56;;;14.96;59.68
84607;BME280;74838;47.984;7.842;2024-02-16T08:46:44;98529.31;;;15.11;59.39
84607;BME280;74838;47.984;7.842;2024-02-16T08:49:13;98538.94;;;15.22;58.59
84607;BME280;74838;47.984;7.842;2024-02-16T08:51:39;98541.56;;;15.32;58.28
84607;BME280;74838;47.984;7.842;2024-02-16T08:54:06;98544.19;;;15.36;58.35
84607;BME280;74838;47.984;7.842;2024-02-16T08:56:33;98545.22;;;15.40;58.39
84607;BME280;74838;47.984;7.842;2024-02-16T08:59:01;98550.28;;;15.47;58.11
84607;BME280;74838;47.984;7.842;2024-02-16T09:01:31;98552.09;;;15.51;57.99
84607;BME280;74838;47.984;7.842;2024-02-16T09:03:58;98550.19;;;15.57;58.14
84607;BME280;74838;47.984;7.842;2024-02-16T09:06:26;98548.28;;;15.62;58.08
84607;BME280;74838;47.984;7.842;2024-02-16T09:08:53;98548.50;;;15.66;57.61
84607;BME280;74838;47.984;7.842;2024-02-16T09:11:20;98557.31;;;15.71;57.92
84607;BME280;74838;47.984;7.842;2024-02-16T09:13:47;98559.94;;;15.76;57.45
84607;BME280;74838;47.984;7.842;2024-02-16T09:16:14;98544.69;;;15.72;57.79
84607;BME280;74838;47.984;7.842;2024-02-16T09:18:40;98563.59;;;15.85;57.22
84607;BME280;74838;47.984;7.842;2024-02-16T09:21:09;98564.19;;;15.82;57.73
84607;BME280;74838;47.984;7.842;2024-02-16T09:23:37;98569.66;;;15.95;57.03
84607;BME280;74838;47.984;7.842;2024-02-16T09:26:04;98572.06;;;15.97;57.15
84607;BME280;74838;47.984;7.842;2024-02-16T09:28:31;98578.03;;;15.94;57.34
84607;BME280;74838;47.984;7.842;2024-02-16T09:30:57;98571.53;;;16.00;56.27
84607;BME280;74838;47.984;7.842;2024-02-16T09:33:24;98564.06;;;15.92;56.96
84607;BME280;74838;47.984;7.842;2024-02-16T09:35:52;98581.91;;;16.06;56.50
84607;BME280;74838;47.984;7.842;2024-02-16T09:38:19;98579.53;;;16.05;56.33
84607;BME280;74838;47.984;7.842;2024-02-16T09:40:47;98586.97;;;16.13;56.63
84607;BME280;74838;47.984;7.842;2024-02-16T09:43:24;98591.19;;;16.18;56.84
84607;BME280;74838;47.984;7.842;2024-02-16T09:45:53;98597.03;;;16.25;58.08
84607;BME280;74838;47.984;7.842;2024-02-16T09:48:22;98593.53;;;16.30;57.34
84607;BME280;74838;47.984;7.842;2024-02-16T09:50:49;98600.97;;;16.38;56.42
84607;BME280;74838;47.984;7.842;2024-02-16T09:53:17;98593.88;;;16.47;57.02
84607;BME280;74838;47.984;7.842;2024-02-16T09:55:48;98595.50;;;16.48;56.67
84607;BME280;74838;47.984;7.842;2024-02-16T09:58:18;98602.78;;;16.42;56.83
84607;BME280;74838;47.984;7.842;2024-02-16T10:00:49;98604.38;;;16.43;56.07
84607;BME280;74838;47.984;7.842;2024-02-16T10:03:26;98616.19;;;16.42;56.72
84607;BME280;74838;47.984;7.842;2024-02-16T10:06:03;98592.72;;;16.29;57.97
84607;BME280;74838;47.984;7.842;2024-02-16T10:08:30;98621.72;;;16.51;56.78
84607;BME280;74838;47.984;7.842;2024-02-16T10:11:02;98611.81;;;16.51;58.69
84607;BME280;74838;47.984;7.842;2024-02-16T10:13:29;98629.97;;;16.59;58.49
84607;BME280;74838;47.984;7.842;2024-02-16T10:16:04;98632.03;;;16.67;58.02
84607;BME280;74838;47.984;7.842;2024-02-16T10:18:34;98631.81;;;16.63;57.35
84607;BME280;74838;47.984;7.842;2024-02-16T10:21:03;98613.41;;;16.52;59.13
84607;BME280;74838;47.984;7.842;2024-02-16T10:23:30;98630.41;;;16.66;58.46
84607;BME280;74838;47.984;7.842;2024-02-16T10:25:57;98638.53;;;16.61;58.41
84607;BME280;74838;47.984;7.842;2024-02-16T10:28:28;98625.25;;;16.51;58.46
84607;BME280;74838;47.984;7.842;2024-02-16T10:30:59;98633.41;;;16.64;57.95
84607;BME280;74838;47.984;7.842;2024-02-16T10:33:28;98644.53;;;16.53;58.62
84607;BME280;74838;47.984;7.842;2024-02-16T10:35:55;98648.78;;;16.54;58.70
84607;BME280;74838;47.984;7.842;2024-02-16T10:38:24;98654.69;;;16.56;59.11
84607;BME280;74838;47.984;7.842;2024-02-16T10:40:56;98644.13;;;16.41;58.56
84607;BME280;74838;47.984;7.842;2024-02-16T10:43:27;98654.75;;;16.51;58.32
84607;BME280;74838;47.984;7.842;2024-02-16T10:45:56;98645.94;;;16.46;58.53
84607;BME280;74838;47.984;7.842;2024-02-16T10:48:23;98659.44;;;16.64;59.19
84607;BME280;74838;47.984;7.842;2024-02-16T10:50:51;98650.31;;;16.65;58.64
84607;BME280;74838;47.984;7.842;2024-02-16T10:53:24;98655.13;;;16.68;58.68
84607;BME280;74838;47.984;7.842;2024-02-16T10:55:51;98650.41;;;16.55;59.09
84607;BME280;74838;47.984;7.842;2024-02-16T10:58:18;98662.63;;;16.66;58.61
84607;BME280;74838;47.984;7.842;2024-02-16T11:00:50;98654.63;;;16.61;59.14
84607;BME280;74838;47.984;7.842;2024-02-16T11:03:17;98664.75;;;16.69;59.54
84607;BME280;74838;47.984;7.842;2024-02-16T11:05:48;98658.03;;;16.71;59.69
84607;BME280;74838;47.984;7.842;2024-02-16T11:08:18;98664.78;;;16.64;59.75
84607;BME280;74838;47.984;7.842;2024-02-16T11:10:54;98651.31;;;16.69;62.65
84607;BME280;74838;47.984;7.842;2024-02-16T11:13:22;98666.31;;;16.75;59.47
84607;BME280;74838;47.984;7.842;2024-02-16T11:15:58;98668.94;;;16.80;59.12
84607;BME280;74838;47.984;7.842;2024-02-16T11:18:27;98670.63;;;16.71;59.16
84607;BME280;74838;47.984;7.842;2024-02-16T11:20:53;98662.28;;;16.72;59.55
84607;BME280;74838;47.984;7.842;2024-02-16T11:23:26;98677.03;;;16.75;59.96
84607;BME280;74838;47.984;7.842;2024-02-16T11:25:54;98671.63;;;16.80;60.54
84607;BME280;74838;47.984;7.842;2024-02-16T11:28:20;98674.88;;;16.77;60.40
84607;BME280;74838;47.984;7.842;2024-02-16T11:30:47;98671.69;;;16.75;60.54
84607;BME280;74838;47.984;7.842;2024-02-16T11:33:15;98674.88;;;16.77;60.74
84607;BME280;74838;47.984;7.842;2024-02-16T11:35:52;98670.53;;;16.81;61.58
84607;BME280;74838;47.984;7.842;2024-02-16T11:38:21;98677.72;;;16.85;61.77
84607;BME280;74838;47.984;7.842;2024-02-16T11:40:55;98678.69;;;16.94;60.63
84607;BME280;74838;47.984;7.842;2024-02-16T11:43:22;98675.22;;;16.94;60.32
84607;BME280;74838;47.984;7.842;2024-02-16T11:45:50;98673.38;;;16.89;60.17
84607;BME280;74838;47.984;7.842;2024-02-16T11:48:21;98679.84;;;16.88;60.51
84607;BME280;74838;47.984;7.842;2024-02-16T11:50:48;98680.66;;;16.89;59.88
84607;BME280;74838;47.984;7.842;2024-02-16T11:53:16;98671.56;;;16.85;61.76
84607;BME280;74838;47.984;7.842;2024-02-16T11:55:47;98676.34;;;16.88;61.04
84607;BME280;74838;47.984;7.842;2024-02-16T11:58:16;98677.63;;;16.95;61.06
84607;BME280;74838;47.984;7.842;2024-02-16T12:00:44;98680.09;;;16.92;60.67
84607;BME280;74838;47.984;7.842;2024-02-16T12:03:10;98683.78;;;16.96;61.36
84607;BME280;74838;47.984;7.842;2024-02-16T12:05:38;98681.63;;;16.98;60.85
84607;BME280;74838;47.984;7.842;2024-02-16T12:08:06;98677.84;;;16.99;61.19
84607;BME280;74838;47.984;7.842;2024-02-16T12:10:36;98676.81;;;16.95;61.66
84607;BME280;74838;47.984;7.842;2024-02-16T12:13:03;98682.78;;;16.92;61.20
84607;BME280;74838;47.984;7.842;2024-02-16T12:15:33;98679.22;;;16.96;61.29
84607;BME280;74838;47.984;7.842;2024-02-16T12:18:00;98681.91;;;16.96;62.08
84607;BME280;74838;47.984;7.842;2024-02-16T12:20:28;98681.16;;;16.91;62.05
84607;BME280;74838;47.984;7.842;2024-02-16T12:22:56;98677.78;;;16.80;62.93
84607;BME280;74838;47.984;7.842;2024-02-16T12:25:26;98688.00;;;16.78;62.75
84607;BME280;74838;47.984;7.842;2024-02-16T12:27:53;98679.09;;;16.60;63.23
84607;BME280;74838;47.984;7.842;2024-02-16T12:30:19;98683.16;;;16.52;63.70
84607;BME280;74838;47.984;7.842;2024-02-16T12:32:46;98683.72;;;16.49;64.33
84607;BME280;74838;47.984;7.842;2024-02-16T12:35:13;98684.31;;;16.46;64.51
84607;BME280;74838;47.984;7.842;2024-02-16T12:37:40;98681.91;;;16.45;64.56
84607;BME280;74838;47.984;7.842;2024-02-16T12:40:11;98688.06;;;16.45;65.16
84607;BME280;74838;47.984;7.842;2024-02-16T12:42:37;98693.47;;;16.40;64.86
84607;BME280;74838;47.984;7.842;2024-02-16T12:45:05;98695.03;;;16.46;64.60
84607;BME280;74838;47.984;7.842;2024-02-16T12:47:31;98693.13;;;16.52;65.43
84607;BME280;74838;47.984;7.842;2024-02-16T12:49:58;98682.75;;;16.40;65.17
84607;BME280;74838;47.984;7.842;2024-02-16T12:52:25;98693.34;;;16.55;65.17
84607;BME280;74838;47.984;7.842;2024-02-16T12:54:52;98689.50;;;16.61;65.19
84607;BME280;74838;47.984;7.842;2024-02-16T12:57:20;98691.63;;;16.64;64.93
84607;BME280;74838;47.984;7.842;2024-02-16T12:59:49;98696.50;;;16.62;65.26
84607;BME280;74838;47.984;7.842;2024-02-16T13:02:16;98696.50;;;16.62;66.52
84607;BME280;74838;47.984;7.842;2024-02-16T13:04:42;98692.19;;;16.61;65.89
84607;BME280;74838;47.984;7.842;2024-02-16T13:07:11;98698.66;;;16.60;66.04
84607;BME280;74838;47.984;7.842;2024-02-16T13:09:38;98694.38;;;16.59;66.84
84607;BME280;74838;47.984;7.842;2024-02-16T13:12:05;98697.00;;;16.64;66.29
84607;BME280;74838;47.984;7.842;2024-02-16T13:14:33;98694.59;;;16.62;65.61
84607;BME280;74838;47.984;7.842;2024-02-16T13:17:00;98694.59;;;16.62;65.42
84607;BME280;74838;47.984;7.842;2024-02-16T13:19:28;98700.59;;;16.55;65.14
84607;BME280;74838;47.984;7.842;2024-02-16T13:21:55;98700.06;;;16.53;65.85
84607;BME280;74838;47.984;7.842;2024-02-16T13:24:22;98688.50;;;16.57;65.39
84607;BME280;74838;47.984;7.842;2024-02-16T13:26:48;98691.69;;;16.59;66.53
84607;BME280;74838;47.984;7.842;2024-02-16T13:29:15;98692.16;;;16.66;66.01
84607;BME280;74838;47.984;7.842;2024-02-16T13:31:43;98692.16;;;16.66;66.07
84607;BME280;74838;47.984;7.842;2024-02-16T13:34:11;98694.84;;;16.66;66.47
84607;BME280;74838;47.984;7.842;2024-02-16T13:36:37;98698.63;;;16.65;66.24
84607;BME280;74838;47.984;7.842;2024-02-16T13:39:04;98684.16;;;16.61;66.51
84607;BME280;74838;47.984;7.842;2024-02-16T13:41:31;98691.16;;;16.57;66.17
84607;BME280;74838;47.984;7.842;2024-02-16T13:43:58;98692.19;;;16.61;65.93
84607;BME280;74838;47.984;7.842;2024-02-16T13:46:24;98695.19;;;16.60;66.40
84607;BME280;74838;47.984;7.842;2024-02-16T13:48:55;98689.47;;;16.66;65.94
84607;BME280;74838;47.984;7.842;2024-02-16T13:51:21;98698.84;;;16.68;66.99
84607;BME280;74838;47.984;7.842;2024-02-16T13:53:48;98696.13;;;16.73;66.13
84607;BME280;74838;47.984;7.842;2024-02-16T13:56:15;98694.75;;;16.76;67.04
84607;BME280;74838;47.984;7.842;2024-02-16T13:58:41;98694.47;;;16.77;66.34
84607;BME280;74838;47.984;7.842;2024-02-16T14:01:08;98701.66;;;16.82;66.72
84607;BME280;74838;47.984;7.842;2024-02-16T14:03:35;98695.75;;;16.85;66.80
84607;BME280;74838;47.984;7.842;2024-02-16T14:06:05;98707.59;;;16.79;67.51
84607;BME280;74838;47.984;7.842;2024-02-16T14:08:33;98707.66;;;16.74;67.21
84607;BME280;74838;47.984;7.842;2024-02-16T14:10:59;98717.88;;;16.72;67.00
84607;BME280;74838;47.984;7.842;2024-02-16T14:13:26;98710.16;;;16.65;67.70
84607;BME280;74838;47.984;7.842;2024-02-16T14:15:53;98716.50;;;16.74;66.84
84607;BME280;74838;47.984;7.842;2024-02-16T14:18:19;98725.94;;;16.72;67.28
84607;BME280;74838;47.984;7.842;2024-02-16T14:20:48;98722.50;;;16.66;67.18
84607;BME280;74838;47.984;7.842;2024-02-16T14:23:16;98725.94;;;16.72;68.67
84607;BME280;74838;47.984;7.842;2024-02-16T14:25:43;98729.97;;;16.69;67.83
84607;BME280;74838;47.984;7.842;2024-02-16T14:28:10;98728.19;;;16.60;67.39
84607;BME280;74838;47.984;7.842;2024-02-16T14:30:37;98736.84;;;16.52;67.08
84607;BME280;74838;47.984;7.842;2024-02-16T14:33:05;98735.34;;;16.41;67.44
84607;BME280;74838;47.984;7.842;2024-02-16T14:35:31;98736.91;;;16.42;67.88
84607;BME280;74838;47.984;7.842;2024-02-16T14:38:01;98733.78;;;16.30;68.15
84607;BME280;74838;47.984;7.842;2024-02-16T14:40:29;98732.25;;;16.24;68.48
84607;BME280;74838;47.984;7.842;2024-02-16T14:42:56;98738.13;;;16.26;68.29
84607;BME280;74838;47.984;7.842;2024-02-16T14:45:22;98735.97;;;16.28;68.30
84607;BME280;74838;47.984;7.842;2024-02-16T14:47:50;98745.34;;;16.31;68.26
84607;BME280;74838;47.984;7.842;2024-02-16T14:50:17;98745.66;;;16.24;68.50